Time,TemperatureF,DewpointF,PressureIn,WindDirection,WindDirectionDegrees,WindSpeedMPH,WindSpeedGustMPH,Humidity,HourlyPrecipIn,Conditions,Clouds,dailyrainin,SoftwareType,DateUTC
2013-04-07 00:02:00,63.0,16.0,29.95,South,187,0.0,4.0,16,0.00,,,0.00,,2013-04-07 06:02:00,
2013-04-07 00:12:00,63.0,16.0,29.95,South,187,0.0,4.0,16,0.00,,,0.00,,2013-04-07 06:12:00,
2013-04-07 00:22:00,63.0,16.0,29.96,South,187,0.0,0.0,16,0.00,,,0.00,,2013-04-07 06:22:00,
2013-04-07 00:32:00,63.0,18.0,29.96,East,100,0.0,1.0,17,0.00,,,0.00,,2013-04-07 06:32:00,
2013-04-07 00:42:00,63.0,18.0,29.96,East,100,0.0,1.0,17,0.00,,,0.00,,2013-04-07 06:42:00,
2013-04-07 00:52:00,62.0,18.0,29.96,South,169,0.0,2.0,18,0.00,,,0.00,,2013-04-07 06:52:00,
2013-04-07 01:02:00,61.0,18.0,29.96,South,169,0.0,0.0,19,0.00,,,0.00,,2013-04-07 07:02:00,
2013-04-07 01:12:00,61.0,18.0,29.96,South,169,0.0,0.0,19,0.00,,,0.00,,2013-04-07 07:12:00,
2013-04-07 01:22:00,60.0,18.0,29.96,South,169,0.0,0.0,19,0.00,,,0.00,,2013-04-07 07:22:00,
2013-04-07 01:32:00,60.0,19.0,29.96,South,169,0.0,0.0,20,0.00,,,0.00,,2013-04-07 07:32:00,
2013-04-07 01:42:00,60.0,19.0,29.96,South,169,0.0,0.0,20,0.00,,,0.00,,2013-04-07 07:42:00,
2013-04-07 01:52:00,60.0,19.0,29.97,South,169,0.0,0.0,20,0.00,,,0.00,,2013-04-07 07:52:00,
2013-04-07 02:02:00,60.0,19.0,29.96,South,169,0.0,0.0,20,0.00,,,0.00,,2013-04-07 08:02:00,
2013-04-07 02:12:00,59.0,18.0,29.96,South,169,0.0,0.0,20,0.00,,,0.00,,2013-04-07 08:12:00,
2013-04-07 02:22:00,59.0,18.0,29.96,South,169,0.0,0.0,20,0.00,,,0.00,,2013-04-07 08:22:00,
2013-04-07 02:32:00,60.0,18.0,29.95,North,10,0.0,1.0,19,0.00,,,0.00,,2013-04-07 08:32:00,
2013-04-07 02:42:00,60.0,18.0,29.95,North,10,0.0,1.0,19,0.00,,,0.00,,2013-04-07 08:42:00,
2013-04-07 02:53:00,60.0,18.0,29.95,North,10,0.0,0.0,19,0.00,,,0.00,,2013-04-07 08:53:00,
2013-04-07 03:02:00,59.0,19.0,29.94,North,10,0.0,0.0,21,0.00,,,0.00,,2013-04-07 09:02:00,
2013-04-07 03:12:00,59.0,19.0,29.94,North,10,0.0,0.0,21,0.00,,,0.00,,2013-04-07 09:12:00,
2013-04-07 03:22:00,59.0,20.0,29.93,North,10,0.0,0.0,22,0.00,,,0.00,,2013-04-07 09:22:00,
2013-04-07 03:33:00,58.0,19.0,29.93,WNW,287,0.0,3.0,22,0.00,,,0.00,,2013-04-07 09:33:00,
2013-04-07 03:43:00,58.0,19.0,29.93,WNW,287,0.0,3.0,22,0.00,,,0.00,,2013-04-07 09:43:00,
2013-04-07 03:53:00,58.0,20.0,29.93,WNW,287,0.0,0.0,23,0.00,,,0.00,,2013-04-07 09:53:00,
2013-04-07 04:03:00,58.0,20.0,29.93,WNW,284,0.0,2.0,23,0.00,,,0.00,,2013-04-07 10:03:00,
2013-04-07 04:13:00,58.0,20.0,29.93,WNW,284,0.0,2.0,23,0.00,,,0.00,,2013-04-07 10:13:00,
2013-04-07 04:22:00,57.0,21.0,29.93,West,280,1.0,2.0,24,0.00,,,0.00,,2013-04-07 10:22:00,
2013-04-07 04:33:00,57.0,22.0,29.93,West,280,0.0,0.0,26,0.00,,,0.00,,2013-04-07 10:33:00,
2013-04-07 04:43:00,57.0,22.0,29.93,West,280,0.0,0.0,26,0.00,,,0.00,,2013-04-07 10:43:00,
2013-04-07 04:54:00,56.0,22.0,29.94,WNW,287,0.0,1.0,26,0.00,,,0.00,,2013-04-07 10:54:00,
2013-04-07 05:02:00,57.0,21.0,29.94,SW,215,0.0,2.0,24,0.00,,,0.00,,2013-04-07 11:02:00,
2013-04-07 05:12:00,57.0,21.0,29.94,SW,215,0.0,2.0,24,0.00,,,0.00,,2013-04-07 11:12:00,
2013-04-07 05:22:00,57.0,22.0,29.94,SE,145,1.0,3.0,25,0.00,,,0.00,,2013-04-07 11:22:00,
2013-04-07 05:32:00,55.0,23.0,29.95,ESE,117,0.0,0.0,28,0.00,,,0.00,,2013-04-07 11:32:00,
2013-04-07 05:42:00,55.0,23.0,29.95,ESE,117,0.0,0.0,28,0.00,,,0.00,,2013-04-07 11:42:00,
2013-04-07 05:53:00,54.0,22.0,29.95,ESE,117,0.0,0.0,29,0.00,,,0.00,,2013-04-07 11:53:00,
2013-04-07 06:02:00,54.0,22.0,29.95,ESE,117,0.0,0.0,29,0.00,,,0.00,,2013-04-07 12:02:00,
2013-04-07 06:12:00,54.0,22.0,29.95,ESE,117,0.0,0.0,29,0.00,,,0.00,,2013-04-07 12:12:00,
2013-04-07 06:22:00,53.0,22.0,29.95,ESE,117,0.0,0.0,29,0.00,,,0.00,,2013-04-07 12:22:00,
2013-04-07 06:33:00,53.0,22.0,29.95,ESE,104,0.0,3.0,30,0.00,,,0.00,,2013-04-07 12:33:00,
2013-04-07 06:42:00,53.0,22.0,29.95,ESE,104,0.0,3.0,30,0.00,,,0.00,,2013-04-07 12:42:00,
2013-04-07 06:53:00,53.0,22.0,29.96,SE,132,0.0,2.0,29,0.00,,,0.00,,2013-04-07 12:53:00,
2013-04-07 07:03:00,54.0,22.0,29.96,East,87,0.0,2.0,29,0.00,,,0.00,,2013-04-07 13:03:00,
2013-04-07 07:13:00,54.0,22.0,29.96,East,87,0.0,2.0,29,0.00,,,0.00,,2013-04-07 13:13:00,
2013-04-07 07:22:00,53.0,22.0,29.97,East,87,0.0,0.0,30,0.00,,,0.00,,2013-04-07 13:22:00,
2013-04-07 07:32:00,54.0,22.0,29.98,East,87,0.0,0.0,29,0.00,,,0.00,,2013-04-07 13:32:00,
2013-04-07 07:42:00,54.0,22.0,29.98,East,87,0.0,0.0,29,0.00,,,0.00,,2013-04-07 13:42:00,
2013-04-07 07:53:00,56.0,23.0,29.98,SE,127,0.0,1.0,28,0.00,,,0.00,,2013-04-07 13:53:00,
2013-04-07 08:02:00,57.0,20.0,29.99,NW,304,1.0,4.0,23,0.00,,,0.00,,2013-04-07 14:02:00,
2013-04-07 08:12:00,57.0,20.0,29.99,NW,304,1.0,4.0,23,0.00,,,0.00,,2013-04-07 14:12:00,
2013-04-07 08:23:00,59.0,20.0,30.00,West,259,1.0,3.0,22,0.00,,,0.00,,2013-04-07 14:23:00,
2013-04-07 08:32:00,61.0,20.0,30.00,SW,221,3.0,7.0,20,0.00,,,0.00,,2013-04-07 14:32:00,
2013-04-07 08:43:00,61.0,20.0,30.00,SW,221,3.0,7.0,20,0.00,,,0.00,,2013-04-07 14:43:00,
2013-04-07 08:54:00,62.0,19.0,30.00,SW,218,0.0,5.0,19,0.00,,,0.00,,2013-04-07 14:54:00,
2013-04-07 09:02:00,63.0,20.0,29.99,WSW,256,2.0,6.0,19,0.00,,,0.00,,2013-04-07 15:02:00,
2013-04-07 09:12:00,65.0,20.0,29.99,SW,222,4.0,9.0,18,0.00,,,0.00,,2013-04-07 15:12:00,
2013-04-07 09:22:00,65.0,20.0,29.99,SW,222,4.0,9.0,18,0.00,,,0.00,,2013-04-07 15:22:00,
2013-04-07 09:33:00,67.0,19.0,29.99,West,266,5.0,9.0,16,0.00,,,0.00,,2013-04-07 15:33:00,
2013-04-07 09:44:00,67.0,19.0,29.99,West,266,5.0,9.0,16,0.00,,,0.00,,2013-04-07 15:44:00,
2013-04-07 09:54:00,68.0,19.0,29.99,West,281,4.0,7.0,15,0.00,,,0.00,,2013-04-07 15:54:00,
2013-04-07 10:03:00,71.0,21.0,29.98,West,266,1.0,5.0,15,0.00,,,0.00,,2013-04-07 16:03:00,
2013-04-07 10:13:00,71.0,21.0,29.98,West,266,1.0,5.0,15,0.00,,,0.00,,2013-04-07 16:13:00,
2013-04-07 10:24:00,73.0,19.0,29.98,WNW,284,2.0,8.0,13,0.00,,,0.00,,2013-04-07 16:24:00,
2013-04-07 10:33:00,75.0,21.0,29.98,WNW,293,4.0,11.0,13,0.00,,,0.00,,2013-04-07 16:33:00,
2013-04-07 10:42:00,75.0,21.0,29.98,WNW,293,4.0,11.0,13,0.00,,,0.00,,2013-04-07 16:42:00,
2013-04-07 10:54:00,75.0,21.0,29.98,West,273,3.0,11.0,13,0.00,,,0.00,,2013-04-07 16:54:00,
2013-04-07 11:03:00,76.0,20.0,29.98,NNW,330,6.0,13.0,12,0.00,,,0.00,,2013-04-07 17:03:00,
2013-04-07 11:13:00,76.0,20.0,29.98,NNW,330,6.0,13.0,12,0.00,,,0.00,,2013-04-07 17:13:00,
2013-04-07 11:23:00,76.0,22.0,29.98,WSW,239,3.0,12.0,13,0.00,,,0.00,,2013-04-07 17:23:00,
2013-04-07 11:33:00,76.0,22.0,29.97,West,274,6.0,15.0,13,0.00,,,0.00,,2013-04-07 17:33:00,
2013-04-07 11:43:00,76.0,22.0,29.97,West,274,6.0,15.0,13,0.00,,,0.00,,2013-04-07 17:43:00,
2013-04-07 11:54:00,77.0,22.0,29.97,WNW,285,6.0,20.0,13,0.00,,,0.00,,2013-04-07 17:54:00,
2013-04-07 12:02:00,77.0,20.0,29.97,West,280,6.0,16.0,12,0.00,,,0.00,,2013-04-07 18:02:00,
2013-04-07 12:13:00,77.0,20.0,29.97,West,280,6.0,16.0,12,0.00,,,0.00,,2013-04-07 18:13:00,
2013-04-07 12:23:00,77.0,18.0,29.96,NNW,333,4.0,13.0,11,0.00,,,0.00,,2013-04-07 18:23:00,
2013-04-07 12:32:00,78.0,17.0,29.95,NW,308,5.0,16.0,10,0.00,,,0.00,,2013-04-07 18:32:00,
2013-04-07 12:43:00,78.0,17.0,29.95,NW,308,5.0,16.0,10,0.00,,,0.00,,2013-04-07 18:43:00,
2013-04-07 12:53:00,79.0,15.0,29.93,WNW,293,5.0,18.0,9,0.00,,,0.00,,2013-04-07 18:53:00,
2013-04-07 13:02:00,80.0,16.0,29.93,WSW,239,8.0,12.0,9,0.00,,,0.00,,2013-04-07 19:02:00,
2013-04-07 13:12:00,80.0,16.0,29.93,WSW,239,8.0,12.0,9,0.00,,,0.00,,2013-04-07 19:12:00,
2013-04-07 13:22:00,80.0,16.0,29.92,North,356,6.0,15.0,9,0.00,,,0.00,,2013-04-07 19:22:00,
2013-04-07 13:32:00,81.0,17.0,29.91,WNW,295,5.0,18.0,9,0.00,,,0.00,,2013-04-07 19:32:00,
2013-04-07 13:42:00,81.0,17.0,29.91,WNW,295,5.0,18.0,9,0.00,,,0.00,,2013-04-07 19:42:00,
2013-04-07 13:55:00,81.0,14.0,29.89,NW,319,6.0,15.0,8,0.00,,,0.00,,2013-04-07 19:55:00,
2013-04-07 14:02:00,81.0,14.0,29.89,WNW,295,6.0,21.0,8,0.00,,,0.00,,2013-04-07 20:02:00,
2013-04-07 14:13:00,81.0,14.0,29.89,WNW,295,6.0,21.0,8,0.00,,,0.00,,2013-04-07 20:13:00,
2013-04-07 14:22:00,82.0,12.0,29.88,West,271,10.0,22.0,7,0.00,,,0.00,,2013-04-07 20:22:00,
2013-04-07 14:32:00,82.0,12.0,29.87,WNW,284,12.0,22.0,7,0.00,,,0.00,,2013-04-07 20:32:00,
2013-04-07 14:43:00,82.0,12.0,29.87,WNW,284,12.0,22.0,7,0.00,,,0.00,,2013-04-07 20:43:00,
2013-04-07 14:52:00,82.0,8.0,29.87,NW,314,6.0,15.0,6,0.00,,,0.00,,2013-04-07 20:52:00,
2013-04-07 15:03:00,82.0,8.0,29.86,WSW,243,6.0,17.0,6,0.00,,,0.00,,2013-04-07 21:03:00,
2013-04-07 15:13:00,82.0,8.0,29.86,WSW,243,6.0,17.0,6,0.00,,,0.00,,2013-04-07 21:13:00,
2013-04-07 15:22:00,82.0,8.0,29.85,West,266,9.0,16.0,6,0.00,,,0.00,,2013-04-07 21:22:00,
2013-04-07 15:33:00,82.0,12.0,29.85,West,270,11.0,21.0,7,0.00,,,0.00,,2013-04-07 21:33:00,
2013-04-07 15:43:00,82.0,12.0,29.85,West,270,11.0,21.0,7,0.00,,,0.00,,2013-04-07 21:43:00,
2013-04-07 15:55:00,83.0,9.0,29.84,NNW,332,5.0,15.0,6,0.00,,,0.00,,2013-04-07 21:55:00,
2013-04-07 16:03:00,83.0,9.0,29.83,North,352,7.0,15.0,6,0.00,,,0.00,,2013-04-07 22:03:00,
2013-04-07 16:13:00,83.0,9.0,29.83,North,352,7.0,15.0,6,0.00,,,0.00,,2013-04-07 22:13:00,
2013-04-07 16:23:00,83.0,9.0,29.83,WSW,240,7.0,17.0,6,0.00,,,0.00,,2013-04-07 22:23:00,
2013-04-07 16:33:00,84.0,10.0,29.83,West,260,8.0,18.0,6,0.00,,,0.00,,2013-04-07 22:33:00,
2013-04-07 16:43:00,84.0,10.0,29.83,West,260,8.0,18.0,6,0.00,,,0.00,,2013-04-07 22:43:00,
2013-04-07 16:53:00,84.0,10.0,29.83,West,274,7.0,17.0,6,0.00,,,0.00,,2013-04-07 22:53:00,
2013-04-07 17:03:00,83.0,9.0,29.82,WNW,288,7.0,21.0,6,0.00,,,0.00,,2013-04-07 23:03:00,
2013-04-07 17:13:00,83.0,9.0,29.82,WNW,288,7.0,21.0,6,0.00,,,0.00,,2013-04-07 23:13:00,
2013-04-07 17:22:00,83.0,9.0,29.82,WSW,248,8.0,21.0,6,0.00,,,0.00,,2013-04-07 23:22:00,
2013-04-07 17:32:00,83.0,9.0,29.82,NW,314,3.0,16.0,6,0.00,,,0.00,,2013-04-07 23:32:00,
2013-04-07 17:42:00,83.0,9.0,29.82,NW,314,3.0,16.0,6,0.00,,,0.00,,2013-04-07 23:42:00,
2013-04-07 17:52:00,83.0,9.0,29.82,NNW,332,8.0,17.0,6,0.00,,,0.00,,2013-04-07 23:52:00,
2013-04-07 18:02:00,82.0,12.0,29.82,WNW,297,7.0,15.0,7,0.00,,,0.00,,2013-04-08 00:02:00,
2013-04-07 18:12:00,82.0,12.0,29.82,WNW,297,7.0,15.0,7,0.00,,,0.00,,2013-04-08 00:12:00,
2013-04-07 18:22:00,82.0,12.0,29.82,WNW,301,7.0,13.0,7,0.00,,,0.00,,2013-04-08 00:22:00,
2013-04-07 18:32:00,81.0,11.0,29.82,WNW,297,7.0,18.0,7,0.00,,,0.00,,2013-04-08 00:32:00,
2013-04-07 18:42:00,81.0,11.0,29.82,WNW,297,7.0,18.0,7,0.00,,,0.00,,2013-04-08 00:42:00,
2013-04-07 18:53:00,81.0,11.0,29.82,NW,314,6.0,15.0,7,0.00,,,0.00,,2013-04-08 00:53:00,
2013-04-07 19:02:00,80.0,10.0,29.81,NNW,336,7.0,16.0,7,0.00,,,0.00,,2013-04-08 01:02:00,
2013-04-07 19:12:00,80.0,10.0,29.81,NNW,336,7.0,16.0,7,0.00,,,0.00,,2013-04-08 01:12:00,
2013-04-07 19:22:00,80.0,10.0,29.81,NW,312,7.0,14.0,7,0.00,,,0.00,,2013-04-08 01:22:00,
2013-04-07 19:33:00,79.0,10.0,29.81,NW,319,5.0,16.0,7,0.00,,,0.00,,2013-04-08 01:33:00,
2013-04-07 19:43:00,79.0,10.0,29.81,NW,319,5.0,16.0,7,0.00,,,0.00,,2013-04-08 01:43:00,
2013-04-07 19:55:00,78.0,12.0,29.81,WNW,283,3.0,10.0,8,0.00,,,0.00,,2013-04-08 01:55:00,
2013-04-07 20:02:00,76.0,13.0,29.81,NW,305,3.0,7.0,9,0.00,,,0.00,,2013-04-08 02:02:00,
2013-04-07 20:12:00,76.0,13.0,29.81,NW,305,3.0,7.0,9,0.00,,,0.00,,2013-04-08 02:12:00,
2013-04-07 20:22:00,75.0,12.0,29.82,NW,326,3.0,6.0,9,0.00,,,0.00,,2013-04-08 02:22:00,
2013-04-07 20:33:00,74.0,14.0,29.82,WNW,295,1.0,4.0,10,0.00,,,0.00,,2013-04-08 02:33:00,
2013-04-07 20:45:00,74.0,14.0,29.82,WNW,295,1.0,4.0,10,0.00,,,0.00,,2013-04-08 02:45:00,
2013-04-07 21:06:00,73.0,15.0,29.83,WNW,293,0.0,2.0,11,0.00,,,0.00,,2013-04-08 03:06:00,
2013-04-07 21:14:00,73.0,15.0,29.83,WNW,293,0.0,2.0,11,0.00,,,0.00,,2013-04-08 03:14:00,
2013-04-07 21:24:00,71.0,16.0,29.83,WNW,293,0.0,0.0,12,0.00,,,0.00,,2013-04-08 03:24:00,
2013-04-07 21:33:00,71.0,16.0,29.84,WNW,293,0.0,0.0,12,0.00,,,0.00,,2013-04-08 03:33:00,
2013-04-07 21:47:00,71.0,16.0,29.84,WNW,293,0.0,0.0,12,0.00,,,0.00,,2013-04-08 03:47:00,
2013-04-07 22:03:00,70.0,15.0,29.84,WNW,300,0.0,6.0,12,0.00,,,0.00,,2013-04-08 04:03:00,
2013-04-07 22:12:00,70.0,15.0,29.84,WNW,300,0.0,6.0,12,0.00,,,0.00,,2013-04-08 04:12:00,
2013-04-07 22:23:00,69.0,14.0,29.84,WSW,257,0.0,3.0,12,0.00,,,0.00,,2013-04-08 04:23:00,
2013-04-07 22:33:00,68.0,15.0,29.85,South,169,1.0,4.0,13,0.00,,,0.00,,2013-04-08 04:33:00,
2013-04-07 22:44:00,68.0,15.0,29.85,South,169,1.0,4.0,13,0.00,,,0.00,,2013-04-08 04:44:00,
2013-04-07 22:53:00,67.0,18.0,29.85,SSE,167,2.0,5.0,15,0.00,,,0.00,,2013-04-08 04:53:00,
2013-04-07 23:02:00,66.0,17.0,29.85,SSW,207,2.0,3.0,15,0.00,,,0.00,,2013-04-08 05:02:00,
2013-04-07 23:12:00,66.0,17.0,29.85,SSW,207,2.0,3.0,15,0.00,,,0.00,,2013-04-08 05:12:00,
2013-04-07 23:22:00,66.0,17.0,29.85,SSW,207,2.0,3.0,15,0.00,,,0.00,,2013-04-08 05:22:00,
2013-04-07 23:32:00,65.0,16.0,29.85,SW,232,1.0,6.0,15,0.00,,,0.00,,2013-04-08 05:32:00,
2013-04-07 23:42:00,65.0,16.0,29.85,West,269,0.0,3.0,15,0.00,,,0.00,,2013-04-08 05:42:00,
2013-04-07 23:52:00,65.0,16.0,29.85,West,269,0.0,3.0,15,0.00,,,0.00,,2013-04-08 05:52:00,